1NY8 weather

Killian Airfield
Scipio, New York, United States

Public forecast

Using degrees Fahrenheit for public forecast. Weather courtesy of forecast.io.

METAR (pilot weather report)

Closest report is Ithaca Tompkins Regional Airport, 19.4 nm (35.8 km) SSE. Retrieved 2019/07/21 19:56 UTC (54 minutes ago):

KITH 211956Z 34008KT 10SM SCT035 28/21 A2989 RMK AO2 SLP111 T02830206

TAF (pilot weather forecast)

Closest forecast is Ithaca Tompkins Regional Airport, 19.4 nm (35.8 km) SSE. Retrieved 2019/07/21 18:24 UTC (2 hours ago):

TAF KITH 211722Z 2118/2218 31011G17KT P6SM BKN040 FM220000 VRB03KT P6SM FEW150 FM220900 00000KT P6SM OVC080 FM221500 VRB04KT P6SM -SHRA OVC030